createdAt,value
2022-08-04T00:00:22.158Z,100116.02
2022-08-04T00:02:47.769Z,100110.60
2022-08-04T00:04:02.550Z,100106.13
2022-08-04T00:05:08.069Z,100108.37
2022-08-04T00:06:35.550Z,100107.84
2022-08-04T00:07:50.478Z,100116.02
2022-08-04T00:08:58.485Z,100110.36
2022-08-04T00:10:04.031Z,100110.23
2022-08-04T00:11:08.522Z,100110.23
2022-08-04T00:12:15.974Z,100107.84
2022-08-04T00:13:27.435Z,100108.41
2022-08-04T00:14:33.175Z,100109.81
2022-08-04T00:15:37.827Z,100110.36
2022-08-04T00:16:41.418Z,100111.05
2022-08-04T00:17:47.142Z,100108.37
2022-08-04T00:18:53.724Z,100103.46
2022-08-04T00:19:59.598Z,100108.83
2022-08-04T00:21:04.786Z,100104.44
2022-08-04T00:22:09.705Z,100100.45
2022-08-04T00:23:13.028Z,100105.55
2022-08-04T00:24:17.449Z,100105.56
2022-08-04T00:25:19.772Z,100109.40
2022-08-04T00:26:22.334Z,100108.11
2022-08-04T00:27:25.020Z,100086.08
2022-08-04T00:28:28.221Z,100106.84
2022-08-04T00:29:30.907Z,100105.27
2022-08-04T00:30:33.775Z,100105.27
2022-08-04T00:31:56.905Z,100106.58
2022-08-04T00:32:41.579Z,100106.98
2022-08-04T00:33:48.449Z,100107.27
2022-08-04T00:34:52.627Z,100108.25
2022-08-04T00:35:56.718Z,100105.70
2022-08-04T00:36:59.034Z,100103.45
2022-08-04T00:38:02.112Z,100103.30
2022-08-04T00:39:05.013Z,100109.93
2022-08-04T00:40:35.051Z,100097.48
2022-08-04T00:42:01.055Z,100106.98
2022-08-04T00:43:15.398Z,100109.95
2022-08-04T00:44:36.281Z,100101.47
2022-08-04T00:46:16.386Z,100106.44
2022-08-04T00:47:18.777Z,100105.40
2022-08-04T00:48:43.338Z,100099.62
2022-08-04T00:50:00.892Z,100100.77
2022-08-04T00:51:21.762Z,100101.77
2022-08-04T00:52:36.574Z,100102.75
2022-08-04T00:53:49.833Z,100100.19
2022-08-04T00:55:08.591Z,100108.66
2022-08-04T00:56:13.080Z,100111.50
2022-08-04T00:57:41.451Z,100120.14
2022-08-04T00:59:04.996Z,100120.96
2022-08-04T01:00:10.999Z,100115.86
2022-08-04T01:01:44.011Z,100120.41
2022-08-04T01:03:07.473Z,100126.19
2022-08-04T01:04:26.101Z,100122.23
2022-08-04T01:05:37.746Z,100122.55
2022-08-04T01:07:03.900Z,100124.92
2022-08-04T01:08:21.703Z,100121.10
2022-08-04T01:11:06.582Z,100131.52
2022-08-04T01:12:15.133Z,100135.79
2022-08-04T01:13:42.506Z,100140.31
2022-08-04T01:15:05.972Z,100142.71
2022-08-04T01:16:10.090Z,100136.22
2022-08-04T01:17:34.264Z,100140.30
2022-08-04T01:19:00.433Z,100136.93
2022-08-04T01:20:08.986Z,100143.16
2022-08-04T01:21:30.209Z,100136.65
2022-08-04T01:22:36.250Z,100140.74
2022-08-04T01:23:51.302Z,100141.47
2022-08-04T01:25:17.208Z,100142.59
2022-08-04T01:26:53.833Z,100146.85
2022-08-04T01:28:16.592Z,100142.60
2022-08-04T01:29:29.216Z,100144.88
2022-08-04T01:30:32.321Z,100148.94
2022-08-04T01:31:44.032Z,100139.49
2022-08-04T01:32:55.145Z,100140.77
2022-08-04T01:34:04.278Z,100138.52
2022-08-04T01:35:21.609Z,100139.20
2022-08-04T01:36:24.505Z,100143.72
2022-08-04T01:37:51.272Z,100134.12
2022-08-04T01:38:54.689Z,100140.06
2022-08-04T01:40:04.001Z,100132.41
2022-08-04T01:41:12.152Z,100136.39
2022-08-04T01:42:31.413Z,100137.10
2022-08-04T01:43:23.644Z,100135.52
2022-08-04T01:44:27.935Z,100135.52
2022-08-04T01:45:30.823Z,100138.95
2022-08-04T01:46:34.836Z,100131.03
2022-08-04T01:47:43.200Z,100132.16
2022-08-04T01:48:47.313Z,100132.00
2022-08-04T01:49:50.198Z,100131.58
2022-08-04T01:50:55.553Z,100132.98
2022-08-04T01:51:58.934Z,100131.86
2022-08-04T01:53:03.691Z,100129.88
2022-08-04T01:54:08.582Z,100135.25
2022-08-04T01:55:13.607Z,100136.25
2022-08-04T01:56:20.608Z,100132.28
2022-08-04T01:57:38.688Z,100139.50
2022-08-04T01:58:30.040Z,100135.95
2022-08-04T01:59:35.145Z,100135.95
2022-08-04T02:00:41.003Z,100138.35
2022-08-04T02:01:43.568Z,100132.44
2022-08-04T02:02:46.731Z,100132.02
2022-08-04T02:04:20.078Z,100130.84
2022-08-04T02:04:53.334Z,100134.97
2022-08-04T02:06:03.373Z,100135.81
2022-08-04T02:07:37.802Z,100135.25
2022-08-04T02:09:09.286Z,100136.95
2022-08-04T02:10:39.832Z,100138.63
2022-08-04T02:11:48.593Z,100128.47
2022-08-04T02:13:11.098Z,100133.58
2022-08-04T02:14:26.078Z,100134.27
2022-08-04T02:15:41.002Z,100134.97
2022-08-04T02:16:52.505Z,100135.10
2022-08-04T02:18:03.351Z,100126.63
2022-08-04T02:19:21.390Z,100124.94
2022-08-04T02:21:49.817Z,100123.09
2022-08-04T02:23:01.330Z,100130.45
2022-08-04T02:24:09.567Z,100124.92
2022-08-04T02:25:15.149Z,100126.34
2022-08-04T02:26:22.714Z,100121.55
2022-08-04T02:27:28.360Z,100128.75
2022-08-04T02:28:39.362Z,100118.58
2022-08-04T02:29:51.351Z,100117.02
2022-08-04T02:31:28.753Z,100121.39
2022-08-04T02:32:34.791Z,100114.17
2022-08-04T02:33:40.171Z,100120.97
2022-08-04T02:34:46.119Z,100120.86
2022-08-04T02:35:52.107Z,100119.42
2022-08-04T02:36:56.023Z,100116.31
2022-08-04T02:38:07.891Z,100120.55
2022-08-04T02:39:11.757Z,100122.25
2022-08-04T02:40:19.681Z,100117.47
2022-08-04T02:41:25.020Z,100119.55
2022-08-04T02:42:31.460Z,100119.70
2022-08-04T02:43:50.743Z,100125.36
2022-08-04T02:44:41.693Z,100120.86
2022-08-04T02:45:46.177Z,100122.11
2022-08-04T02:46:51.256Z,100121.95
2022-08-04T02:48:28.659Z,100121.97
2022-08-04T02:49:02.568Z,100125.08
2022-08-04T02:50:07.192Z,100115.06
2022-08-04T02:51:12.735Z,100115.63
2022-08-04T02:52:17.747Z,100119.41
2022-08-04T02:53:22.382Z,100110.96
2022-08-04T02:54:32.850Z,100113.77
2022-08-04T02:55:33.175Z,100113.77
2022-08-04T02:56:38.943Z,100120.55
2022-08-04T02:57:43.545Z,100106.13
2022-08-04T02:58:49.298Z,100110.80
2022-08-04T03:00:12.209Z,100119.70
2022-08-04T03:01:14.229Z,100115.06
2022-08-04T03:02:20.405Z,100106.69
2022-08-04T03:04:54.772Z,100115.49
2022-08-04T03:06:12.648Z,100108.11
2022-08-04T03:07:33.444Z,100115.60
2022-08-04T03:09:12.973Z,100112.52
2022-08-04T03:10:31.541Z,100112.64
2022-08-04T03:12:06.723Z,100111.49
2022-08-04T03:13:29.539Z,100114.63
2022-08-04T03:14:55.218Z,100110.96
2022-08-04T03:16:12.554Z,100118.84
2022-08-04T03:17:52.944Z,100123.09
2022-08-04T03:19:20.754Z,100115.06
2022-08-04T03:20:32.530Z,100121.70
2022-08-04T03:21:50.911Z,100119.00
2022-08-04T03:23:13.605Z,100120.27
2022-08-04T03:24:42.767Z,100119.70
2022-08-04T03:26:06.753Z,100116.45
2022-08-04T03:27:24.377Z,100117.14
2022-08-04T03:29:05.962Z,100114.45
2022-08-04T03:30:29.772Z,100116.45
2022-08-04T03:31:41.640Z,100112.52
2022-08-04T03:33:10.813Z,100114.91
2022-08-04T03:34:34.998Z,100123.13
2022-08-04T03:36:00.491Z,100120.56
2022-08-04T03:37:17.935Z,100125.81
2022-08-04T03:38:32.872Z,100125.95
2022-08-04T03:39:55.401Z,100120.28
2022-08-04T03:41:51.847Z,100127.61
2022-08-04T03:42:56.912Z,100122.78
2022-08-04T03:44:17.954Z,100132.16
2022-08-04T03:45:41.874Z,100130.31
2022-08-04T03:47:07.422Z,100124.38
2022-08-04T03:48:36.019Z,100126.20
2022-08-04T03:50:15.716Z,100125.06
2022-08-04T03:51:35.169Z,100127.77
2022-08-04T03:52:53.525Z,100125.09
2022-08-04T03:54:27.768Z,100126.47
2022-08-04T03:55:42.632Z,100126.19
2022-08-04T03:57:09.758Z,100131.31
2022-08-04T03:58:33.850Z,100128.47
2022-08-04T03:59:49.094Z,100128.20
2022-08-04T04:00:55.265Z,100136.11
2022-08-04T04:02:20.109Z,100128.05
2022-08-04T04:03:47.780Z,100135.52
2022-08-04T04:05:13.240Z,100129.32
2022-08-04T04:08:01.333Z,100141.77
2022-08-04T04:09:00.590Z,100118.17
2022-08-04T04:10:26.813Z,100133.99
2022-08-04T04:11:56.653Z,100132.13
2022-08-04T04:12:49.202Z,100138.38
2022-08-04T04:14:04.129Z,100143.16
2022-08-04T04:16:46.248Z,100142.71
2022-08-04T04:18:04.158Z,100144.56
2022-08-04T04:19:10.002Z,100147.80
2022-08-04T04:20:27.522Z,100141.45
2022-08-04T04:21:54.691Z,100149.50
2022-08-04T04:23:06.793Z,100144.14
2022-08-04T04:24:34.729Z,100138.91
2022-08-04T04:25:55.744Z,100142.28
2022-08-04T04:27:04.554Z,100139.45
2022-08-04T04:28:46.056Z,100142.86
2022-08-04T04:29:51.908Z,100138.92
2022-08-04T04:31:15.985Z,100142.88
2022-08-04T04:32:24.945Z,100148.38
2022-08-04T04:33:55.136Z,100147.67
2022-08-04T04:36:37.847Z,100149.91
2022-08-04T04:37:58.399Z,100142.42
2022-08-04T04:39:10.559Z,100143.14
2022-08-04T04:40:29.141Z,100145.13
2022-08-04T04:43:05.184Z,100145.66
2022-08-04T04:44:30.741Z,100151.50
2022-08-04T04:45:56.166Z,100151.50
2022-08-04T04:47:02.150Z,100156.71
2022-08-04T04:48:11.216Z,100150.20
2022-08-04T04:49:35.734Z,100150.61
2022-08-04T04:50:50.871Z,100145.64
2022-08-04T04:51:59.818Z,100149.05
2022-08-04T04:53:08.459Z,100154.84
2022-08-04T04:54:17.378Z,100159.08
2022-08-04T04:55:23.296Z,100150.47
2022-08-04T04:56:38.220Z,100153.17
2022-08-04T04:57:53.082Z,100147.63
2022-08-04T04:58:46.753Z,100153.01
2022-08-04T04:59:55.255Z,100149.34
2022-08-04T05:01:10.374Z,100149.34
2022-08-04T05:02:16.244Z,100159.23
2022-08-04T05:03:42.179Z,100157.56
2022-08-04T05:04:56.897Z,100161.92
2022-08-04T05:07:43.568Z,100150.47
2022-08-04T05:09:03.913Z,100145.96
2022-08-04T05:10:27.938Z,100150.30
2022-08-04T05:11:34.033Z,100155.81
2022-08-04T05:14:32.612Z,100153.41
2022-08-04T05:14:34.618Z,100149.05
2022-08-04T05:15:09.961Z,100152.74
2022-08-04T05:16:28.621Z,100155.86
2022-08-04T05:17:43.494Z,100153.01
2022-08-04T05:18:49.239Z,100155.27
2022-08-04T05:20:04.415Z,100155.58
2022-08-04T05:21:22.632Z,100163.18
2022-08-04T05:22:34.005Z,100154.95
2022-08-04T05:23:39.258Z,100160.61
2022-08-04T05:24:44.452Z,100156.97
2022-08-04T05:26:05.489Z,100158.79
2022-08-04T05:27:17.093Z,100162.61
2022-08-04T05:29:41.033Z,100157.34
2022-08-04T05:30:49.614Z,100167.86
2022-08-04T05:31:55.439Z,100172.51
2022-08-04T05:33:03.802Z,100172.66
2022-08-04T05:34:11.074Z,100170.52
2022-08-04T05:35:17.002Z,100169.37
2022-08-04T05:36:40.446Z,100167.29
2022-08-04T05:37:36.415Z,100170.67
2022-08-04T05:38:41.934Z,100174.45
2022-08-04T05:39:47.968Z,100160.35
2022-08-04T05:40:51.792Z,100169.69
2022-08-04T05:41:58.336Z,100162.58
2022-08-04T05:43:00.984Z,100167.58
2022-08-04T05:44:03.757Z,100167.69
2022-08-04T05:45:08.473Z,100168.96
2022-08-04T05:46:13.231Z,100169.51
2022-08-04T05:47:16.583Z,100164.94
2022-08-04T05:48:19.050Z,100167.48
2022-08-04T05:49:26.301Z,100168.46
2022-08-04T05:50:31.284Z,100169.30
2022-08-04T05:51:35.845Z,100178.05
2022-08-04T05:52:39.367Z,100173.45
2022-08-04T05:53:43.558Z,100171.69
2022-08-04T05:54:47.470Z,100172.58
2022-08-04T05:55:58.839Z,100168.17
2022-08-04T05:56:57.662Z,100176.92
2022-08-04T05:58:01.582Z,100179.71
2022-08-04T05:59:04.823Z,100176.73
2022-08-04T06:00:31.804Z,100175.46
2022-08-04T06:01:16.154Z,100178.70
2022-08-04T06:02:19.931Z,100176.00
2022-08-04T06:03:25.205Z,100176.58
2022-08-04T06:04:41.554Z,100182.45
2022-08-04T06:05:45.706Z,100170.80
2022-08-04T06:06:48.590Z,100174.08
2022-08-04T06:08:07.808Z,100181.61
2022-08-04T06:08:56.171Z,100174.17
2022-08-04T06:09:59.476Z,100167.51
2022-08-04T06:11:04.955Z,100169.27
2022-08-04T06:12:11.176Z,100169.69
2022-08-04T06:13:46.745Z,100172.00
2022-08-04T06:14:23.681Z,100173.51
2022-08-04T06:15:28.295Z,100169.46
2022-08-04T06:16:36.085Z,100168.32
2022-08-04T06:19:57.203Z,100172.07
2022-08-04T06:20:00.788Z,100173.81
2022-08-04T06:20:17.818Z,100172.67
2022-08-04T06:21:03.721Z,100173.81
2022-08-04T06:22:11.260Z,100186.34
2022-08-04T06:23:16.164Z,100176.66
2022-08-04T06:24:21.868Z,100177.64
2022-08-04T06:26:39.000Z,100175.14
2022-08-04T06:27:42.529Z,100175.30
2022-08-04T06:28:48.378Z,100178.12
2022-08-04T06:29:52.419Z,100188.61
2022-08-04T06:30:56.476Z,100182.93
2022-08-04T06:32:26.931Z,100179.49
2022-08-04T06:33:06.930Z,100187.42
2022-08-04T06:34:12.128Z,100186.34
2022-08-04T06:35:16.553Z,100186.88
2022-08-04T06:36:19.822Z,100187.62
2022-08-04T06:37:40.922Z,100187.47
2022-08-04T06:38:29.874Z,100180.84
2022-08-04T06:39:33.151Z,100183.35
2022-08-04T06:40:36.086Z,100179.85
2022-08-04T06:42:14.789Z,100179.85
2022-08-04T06:42:44.532Z,100171.57
2022-08-04T06:43:47.498Z,100172.67
2022-08-04T06:44:53.377Z,100179.73
2022-08-04T06:45:58.799Z,100176.05
2022-08-04T06:47:03.147Z,100171.66
2022-08-04T06:48:10.399Z,100178.33
2022-08-04T06:49:13.871Z,100173.42
2022-08-04T06:51:25.816Z,100187.03
2022-08-04T06:51:32.148Z,100169.90
2022-08-04T06:52:27.014Z,100164.19
2022-08-04T06:53:29.646Z,100164.83
2022-08-04T06:54:31.975Z,100159.60
2022-08-04T06:55:34.616Z,100165.06
2022-08-04T06:56:38.803Z,100168.28
2022-08-04T06:57:42.629Z,100166.05
2022-08-04T06:58:46.308Z,100167.45
2022-08-04T06:59:52.244Z,100162.78
2022-08-04T07:00:56.074Z,100160.73
2022-08-04T07:01:59.770Z,100165.28
2022-08-04T07:03:03.832Z,100170.91
2022-08-04T07:04:06.517Z,100165.59
2022-08-04T07:05:10.524Z,100163.95
2022-08-04T07:06:15.000Z,100159.91
2022-08-04T07:07:17.814Z,100162.75
2022-08-04T07:08:21.918Z,100156.84
2022-08-04T07:09:24.161Z,100164.88
2022-08-04T07:10:27.557Z,100155.11
2022-08-04T07:11:39.235Z,100161.55
2022-08-04T07:12:38.122Z,100153.76
2022-08-04T07:13:45.041Z,100160.19
2022-08-04T07:14:46.501Z,100156.45
2022-08-04T07:16:17.864Z,100158.59
2022-08-04T07:17:21.312Z,100158.47
2022-08-04T07:18:23.922Z,100159.08
2022-08-04T07:19:26.201Z,100164.41
2022-08-04T07:20:34.240Z,100165.63
2022-08-04T07:21:35.105Z,100163.66
2022-08-04T07:22:38.186Z,100174.64
2022-08-04T07:23:40.487Z,100175.48
2022-08-04T07:24:42.893Z,100175.39
2022-08-04T07:26:11.916Z,100176.40
2022-08-04T07:26:57.237Z,100171.49
2022-08-04T07:27:59.440Z,100174.25
2022-08-04T07:29:02.309Z,100176.09
2022-08-04T07:30:09.344Z,100172.02
2022-08-04T07:31:16.554Z,100172.86
2022-08-04T07:32:23.633Z,100177.56
2022-08-04T07:33:29.639Z,100174.23
2022-08-04T07:34:32.430Z,100176.09
2022-08-04T07:36:05.758Z,100170.55
2022-08-04T07:36:50.324Z,100165.89
2022-08-04T07:37:46.378Z,100170.79
2022-08-04T07:38:51.682Z,100175.11
2022-08-04T07:39:53.111Z,100170.48
2022-08-04T07:40:56.040Z,100171.27
2022-08-04T07:42:01.407Z,100174.12
2022-08-04T07:43:05.048Z,100166.80
2022-08-04T07:44:08.455Z,100168.02
2022-08-04T07:45:11.108Z,100168.73
2022-08-04T07:46:15.204Z,100164.31
2022-08-04T07:47:20.987Z,100170.48
2022-08-04T07:48:21.668Z,100165.67
2022-08-04T07:49:55.216Z,100167.53
2022-08-04T07:50:29.589Z,100159.23
2022-08-04T07:51:33.350Z,100169.27
2022-08-04T07:52:39.874Z,100163.81
2022-08-04T07:53:55.596Z,100163.91
2022-08-04T07:54:47.420Z,100170.38
2022-08-04T07:55:49.989Z,100171.12
2022-08-04T07:56:52.958Z,100172.20
2022-08-04T07:57:55.734Z,100167.89
2022-08-04T07:58:59.668Z,100163.77
2022-08-04T08:00:04.236Z,100175.39
2022-08-04T08:01:07.672Z,100172.53
2022-08-04T08:02:10.411Z,100168.45
2022-08-04T08:03:14.658Z,100168.73
2022-08-04T08:04:17.892Z,100167.10
2022-08-04T08:05:23.598Z,100167.06
2022-08-04T08:06:32.316Z,100169.45
2022-08-04T08:07:31.238Z,100168.45
2022-08-04T08:08:37.215Z,100162.73
2022-08-04T08:09:39.967Z,100117.45
2022-08-04T08:10:47.097Z,100167.33
2022-08-04T08:12:36.047Z,100162.45
2022-08-04T08:12:56.287Z,100170.62
2022-08-04T08:13:59.243Z,100164.02
2022-08-04T08:15:02.834Z,100163.97
2022-08-04T08:16:06.024Z,100162.11
2022-08-04T08:17:08.214Z,100168.80
2022-08-04T08:18:10.343Z,100163.09
2022-08-04T08:19:13.399Z,100166.20
2022-08-04T08:20:16.080Z,100165.36
2022-08-04T08:21:22.079Z,100155.59
2022-08-04T08:22:24.656Z,100160.69
2022-08-04T08:23:29.790Z,100164.03
2022-08-04T08:24:35.402Z,100164.03
2022-08-04T08:25:37.974Z,100161.20
2022-08-04T08:26:41.029Z,100158.63
2022-08-04T08:27:56.237Z,100155.22
2022-08-04T08:28:47.733Z,100161.20
2022-08-04T08:29:51.368Z,100153.50
2022-08-04T08:30:53.852Z,100163.87
2022-08-04T08:32:07.033Z,100160.19
2022-08-04T08:33:07.350Z,100158.84
2022-08-04T08:34:12.348Z,100167.22
2022-08-04T08:35:17.294Z,100162.33
2022-08-04T08:36:26.725Z,100162.99
2022-08-04T08:37:42.097Z,100166.59
2022-08-04T08:38:52.181Z,100163.06
2022-08-04T08:40:00.871Z,100162.37
2022-08-04T08:41:21.975Z,100158.94
2022-08-04T08:42:56.970Z,100156.17
2022-08-04T08:44:30.156Z,100154.09
2022-08-04T08:45:57.314Z,100143.78
2022-08-04T08:47:06.530Z,100153.16
2022-08-04T08:48:12.322Z,100130.22
2022-08-04T08:50:01.786Z,100135.19
2022-08-04T08:51:00.014Z,100138.99
2022-08-04T08:52:56.186Z,100137.12
2022-08-04T08:53:37.648Z,100131.58
2022-08-04T08:55:13.859Z,100142.20
2022-08-04T08:56:40.972Z,100131.05
2022-08-04T08:58:01.406Z,100137.59
2022-08-04T08:59:15.117Z,100150.33
2022-08-04T09:00:23.836Z,100137.00
2022-08-04T09:01:52.921Z,100138.45
2022-08-04T09:03:14.317Z,100133.33
2022-08-04T09:04:26.704Z,100136.02
2022-08-04T09:05:49.439Z,100142.95
2022-08-04T09:07:23.607Z,100138.00
2022-08-04T09:08:49.648Z,100134.64
2022-08-04T09:10:11.129Z,100133.02
2022-08-04T09:11:16.855Z,100137.23
2022-08-04T09:12:31.618Z,100133.07
2022-08-04T09:13:39.959Z,100130.36
2022-08-04T09:14:51.673Z,100133.00
2022-08-04T09:16:06.259Z,100131.56
2022-08-04T09:17:27.487Z,100144.05
2022-08-04T09:18:36.014Z,100128.77
2022-08-04T09:19:44.543Z,100145.90
2022-08-04T09:20:59.750Z,100141.55
2022-08-04T09:24:02.319Z,100142.05
2022-08-04T09:25:13.971Z,100139.70
2022-08-04T09:26:20.165Z,100135.55
2022-08-04T09:27:26.211Z,100150.67
2022-08-04T09:28:52.850Z,100146.69
2022-08-04T09:29:56.485Z,100138.55
2022-08-04T09:31:11.344Z,100139.63
2022-08-04T09:32:22.826Z,100143.13
2022-08-04T09:33:45.608Z,100130.94
2022-08-04T09:35:08.625Z,100137.55
2022-08-04T09:36:24.726Z,100134.03
2022-08-04T09:37:34.734Z,100140.91
2022-08-04T09:38:52.786Z,100140.25
2022-08-04T09:39:56.050Z,100142.27
2022-08-04T09:41:20.636Z,100134.71
2022-08-04T09:42:34.306Z,100134.11
2022-08-04T09:43:59.151Z,100139.72
2022-08-04T09:45:26.173Z,100134.12
2022-08-04T09:46:29.396Z,100137.16
2022-08-04T09:47:39.563Z,100136.07
2022-08-04T09:48:54.782Z,100139.83
2022-08-04T09:50:20.529Z,100146.73
2022-08-04T09:51:57.444Z,100142.09
2022-08-04T09:53:04.483Z,100146.14
2022-08-04T09:54:30.135Z,100143.84
2022-08-04T09:55:24.395Z,100143.02
2022-08-04T09:56:57.870Z,100146.02
2022-08-04T09:58:29.794Z,100143.02
2022-08-04T10:00:49.675Z,100136.47
2022-08-04T10:01:59.109Z,100151.24
2022-08-04T10:03:02.431Z,100145.65
2022-08-04T10:04:10.931Z,100149.93
2022-08-04T10:05:16.462Z,100146.53
2022-08-04T10:06:28.809Z,100147.52
2022-08-04T10:07:43.615Z,100139.11
2022-08-04T10:09:08.075Z,100138.94
2022-08-04T10:10:38.553Z,100141.91
2022-08-04T10:12:17.819Z,100139.63
2022-08-04T10:13:27.249Z,100138.31
2022-08-04T10:14:54.259Z,100133.75
2022-08-04T10:16:15.211Z,100139.03
2022-08-04T10:17:52.097Z,100136.44
2022-08-04T10:20:11.040Z,100131.81
2022-08-04T10:21:50.593Z,100129.06
2022-08-04T10:23:09.259Z,100131.09
2022-08-04T10:24:29.230Z,100123.79
2022-08-04T10:26:05.314Z,100138.71
2022-08-04T10:27:12.257Z,100131.84
2022-08-04T10:28:19.711Z,100129.75
2022-08-04T10:29:41.973Z,100122.16
2022-08-04T10:30:53.614Z,100124.76
2022-08-04T10:32:02.649Z,100120.35
2022-08-04T10:33:14.320Z,100122.05
2022-08-04T10:34:21.759Z,100123.79
2022-08-04T10:35:27.410Z,100125.56
2022-08-04T10:36:39.152Z,100115.80
2022-08-04T10:38:02.417Z,100122.27
2022-08-04T10:39:43.556Z,100121.80
2022-08-04T10:42:00.003Z,100114.64
2022-08-04T10:43:25.611Z,100118.19
2022-08-04T10:44:46.018Z,100122.27
2022-08-04T10:45:57.714Z,100123.03
2022-08-04T10:47:02.379Z,100124.94
2022-08-04T10:48:16.968Z,100123.14
2022-08-04T10:49:36.660Z,100122.05
2022-08-04T10:50:42.549Z,100113.60
2022-08-04T10:51:58.489Z,100115.88
2022-08-04T10:53:04.841Z,100114.56
2022-08-04T10:54:12.580Z,100109.52
2022-08-04T10:55:20.688Z,100116.38
2022-08-04T10:56:38.306Z,100119.66
2022-08-04T10:58:02.419Z,100119.56
2022-08-04T10:59:09.278Z,100114.56
2022-08-04T11:00:27.475Z,100116.23
2022-08-04T11:02:00.008Z,100113.22
2022-08-04T11:02:58.707Z,100105.08
2022-08-04T11:04:07.663Z,100106.70
2022-08-04T11:05:22.294Z,100102.11
2022-08-04T11:06:25.989Z,100102.56
2022-08-04T11:07:31.833Z,100110.38
2022-08-04T11:08:40.134Z,100109.41
2022-08-04T11:09:44.493Z,100098.82
2022-08-04T11:10:59.638Z,100102.68
2022-08-04T11:13:22.049Z,100097.84
2022-08-04T11:14:25.702Z,100099.97
2022-08-04T11:15:37.565Z,100104.47
2022-08-04T11:16:57.312Z,100106.62
2022-08-04T11:19:45.331Z,100102.87
2022-08-04T11:21:02.613Z,100104.01
2022-08-04T11:22:25.227Z,100106.19
2022-08-04T11:23:31.010Z,100090.98
2022-08-04T11:24:51.840Z,100100.84
2022-08-04T11:26:00.571Z,100096.22
2022-08-04T11:27:12.353Z,100097.34
2022-08-04T11:28:33.156Z,100103.27
2022-08-04T11:30:05.813Z,100096.40
2022-08-04T11:32:34.112Z,100086.65
2022-08-04T11:33:49.126Z,100084.95
2022-08-04T11:34:55.215Z,100090.38
2022-08-04T11:36:03.952Z,100082.06
2022-08-04T11:37:18.902Z,100088.55
2022-08-04T11:38:41.501Z,100087.98
2022-08-04T11:39:54.918Z,100086.00
2022-08-04T11:41:03.175Z,100085.20
2022-08-04T11:42:14.003Z,100050.59
2022-08-04T11:44:00.987Z,100075.81
2022-08-04T11:44:36.423Z,100078.19
2022-08-04T11:45:42.359Z,100075.52
2022-08-04T11:46:51.298Z,100071.93
2022-08-04T11:47:57.006Z,100077.19
2022-08-04T11:49:08.673Z,100077.91
2022-08-04T11:50:14.673Z,100077.44
2022-08-04T11:51:18.579Z,100070.87
2022-08-04T11:52:21.670Z,100077.52
2022-08-04T11:53:36.390Z,100076.55
2022-08-04T11:54:33.730Z,100073.14
2022-08-04T11:56:09.110Z,100065.09
2022-08-04T11:56:42.065Z,100064.03
2022-08-04T11:57:44.683Z,100058.86
2022-08-04T11:58:50.494Z,100049.52
2022-08-04T11:59:54.525Z,100056.89
2022-08-04T12:01:21.771Z,100052.42
2022-08-04T12:02:53.874Z,100042.66
2022-08-04T12:04:14.911Z,100068.15
2022-08-04T12:05:23.537Z,100069.30
2022-08-04T12:06:37.789Z,100070.02
2022-08-04T12:08:01.667Z,100067.76
2022-08-04T12:09:19.601Z,100061.37
2022-08-04T12:10:42.338Z,100057.49
2022-08-04T12:11:51.236Z,100063.05
2022-08-04T12:13:25.815Z,100066.67
2022-08-04T12:14:34.701Z,100063.45
2022-08-04T12:16:05.067Z,100074.94
2022-08-04T12:17:07.313Z,100076.05
2022-08-04T12:18:22.236Z,100071.55
2022-08-04T12:19:56.099Z,100066.42
2022-08-04T12:20:49.197Z,100073.53
2022-08-04T12:21:56.728Z,100077.47
2022-08-04T12:23:00.723Z,100063.81
2022-08-04T12:24:09.785Z,100071.11
2022-08-04T12:25:15.633Z,100081.83
2022-08-04T12:26:25.832Z,100087.89
2022-08-04T12:27:31.656Z,100082.84
2022-08-04T12:29:09.149Z,100078.43
2022-08-04T12:30:53.962Z,100079.77
2022-08-04T12:30:57.761Z,100085.19
2022-08-04T12:32:17.664Z,100091.44
2022-08-04T12:34:02.766Z,100087.66
2022-08-04T12:34:42.663Z,100086.88
2022-08-04T12:36:11.372Z,100083.12
2022-08-04T12:37:08.336Z,100086.38
2022-08-04T12:38:12.964Z,100084.20
2022-08-04T12:39:17.112Z,100087.38
2022-08-04T12:40:31.214Z,100087.38
2022-08-04T12:41:45.967Z,100083.12
2022-08-04T12:42:55.962Z,100082.67
2022-08-04T12:43:59.443Z,100082.72
2022-08-04T12:45:05.225Z,100093.16
2022-08-04T12:46:14.662Z,100089.30
2022-08-04T12:47:27.888Z,100093.02
2022-08-04T12:48:23.487Z,100092.38
2022-08-04T12:49:27.093Z,100095.45
2022-08-04T12:50:31.321Z,100100.56
2022-08-04T12:52:07.958Z,100099.84
2022-08-04T12:53:05.157Z,100094.48
2022-08-04T12:53:56.930Z,100099.72
2022-08-04T12:54:59.926Z,100094.80
2022-08-04T12:56:03.709Z,100095.31
2022-08-04T12:57:07.667Z,100102.92
2022-08-04T12:58:43.205Z,100097.86
2022-08-04T12:59:23.613Z,100105.78
2022-08-04T13:00:31.270Z,100106.95
2022-08-04T13:02:09.506Z,100103.28
2022-08-04T13:02:44.736Z,100109.66
2022-08-04T13:03:50.630Z,100113.06
2022-08-04T13:04:55.297Z,100110.68
2022-08-04T13:05:57.419Z,100106.95
2022-08-04T13:07:06.341Z,100104.91
2022-08-04T13:08:11.787Z,100109.30
2022-08-04T13:09:17.603Z,100109.67
2022-08-04T13:10:30.297Z,100104.08
2022-08-04T13:11:29.395Z,100106.96
2022-08-04T13:12:34.685Z,100103.93
2022-08-04T13:13:38.567Z,100107.32
2022-08-04T13:14:41.971Z,100112.05
2022-08-04T13:15:57.194Z,100105.61
2022-08-04T13:17:00.831Z,100108.31
2022-08-04T13:18:06.511Z,100111.36
2022-08-04T13:19:11.479Z,100103.62
2022-08-04T13:20:15.342Z,100104.29
2022-08-04T13:22:27.209Z,100106.98
2022-08-04T13:24:09.433Z,100105.61
2022-08-04T13:24:56.346Z,100098.08
2022-08-04T13:26:43.389Z,100103.45
2022-08-04T13:27:04.192Z,100101.75
2022-08-04T13:28:10.138Z,100108.16
2022-08-04T13:29:16.549Z,100100.88
2022-08-04T13:30:22.956Z,100103.44
2022-08-04T13:30:24.962Z,100103.27
2022-08-04T13:31:27.848Z,100099.49
2022-08-04T13:32:35.205Z,100105.44
2022-08-04T13:33:39.429Z,100105.62
2022-08-04T13:34:48.847Z,100099.38
2022-08-04T13:35:55.168Z,100096.22
2022-08-04T13:36:55.293Z,100094.23
2022-08-04T13:37:58.670Z,100097.98
2022-08-04T13:39:06.411Z,100090.01
2022-08-04T13:40:12.764Z,100094.79
2022-08-04T13:41:17.063Z,100095.45
2022-08-04T13:42:20.077Z,100094.13
2022-08-04T13:44:16.130Z,100092.03
2022-08-04T13:44:33.008Z,100101.42
2022-08-04T13:45:37.936Z,100109.67
2022-08-04T13:46:44.359Z,100097.91
2022-08-04T13:47:48.915Z,100111.61
2022-08-04T13:49:15.926Z,100098.25
2022-08-04T13:50:12.139Z,100097.38
2022-08-04T13:51:20.879Z,100099.24
2022-08-04T13:52:25.664Z,100101.55
2022-08-04T13:53:31.165Z,100099.68
2022-08-04T13:54:42.388Z,100098.09
2022-08-04T13:55:46.298Z,100102.39